createdAt,value
2018-04-10T00:04:15.026Z,62.92
2018-04-10T00:10:19.369Z,62.93
2018-04-10T00:16:23.757Z,63.42
2018-04-10T00:22:28.875Z,63.19
2018-04-10T00:28:33.216Z,63.40
2018-04-10T00:34:37.573Z,63.82
2018-04-10T00:40:41.919Z,64.33
2018-04-10T00:46:47.023Z,64.38
2018-04-10T00:52:51.372Z,63.78
2018-04-10T00:58:55.716Z,64.59
2018-04-10T01:05:00.093Z,65.17
2018-04-10T01:11:04.435Z,65.52
2018-04-10T01:17:08.790Z,65.37
2018-04-10T01:23:13.927Z,66.12
2018-04-10T01:29:18.262Z,66.02
2018-04-10T01:35:22.632Z,66.58
2018-04-10T01:41:27.747Z,66.31
2018-04-10T01:47:32.157Z,66.09
2018-04-10T01:53:36.526Z,66.50
2018-04-10T01:59:40.869Z,67.06
2018-04-10T02:05:45.219Z,67.21
2018-04-10T02:20:14.000Z,67.88
2018-04-10T02:26:18.486Z,67.94
2018-04-10T02:32:22.892Z,67.40
2018-04-10T02:38:27.339Z,67.18
2018-04-10T02:44:31.764Z,67.97
2018-04-10T02:50:36.305Z,67.84
2018-04-10T02:56:40.896Z,68.12
2018-04-10T03:02:45.387Z,68.32
2018-04-10T03:08:49.754Z,68.08
2018-04-10T03:14:54.306Z,68.25
2018-04-10T03:20:58.855Z,68.59
2018-04-10T03:27:03.217Z,68.83
2018-04-10T03:33:07.594Z,68.65
2018-04-10T03:39:12.453Z,68.61
2018-04-10T03:45:17.002Z,68.40
2018-04-10T03:51:21.423Z,68.75
2018-04-10T03:57:25.842Z,68.94
2018-04-10T04:03:30.207Z,70.35
2018-04-10T04:09:35.479Z,71.07
2018-04-10T04:15:40.314Z,71.72
2018-04-10T04:22:07.341Z,72.22
2018-04-10T04:28:11.722Z,72.35
2018-04-10T04:34:16.095Z,71.98
2018-04-10T04:40:20.592Z,72.06
2018-04-10T04:46:24.960Z,71.55
2018-04-10T04:52:29.483Z,72.34
2018-04-10T04:58:34.637Z,72.79
2018-04-10T05:04:39.062Z,72.46
2018-04-10T05:10:44.700Z,72.74
2018-04-10T05:16:49.231Z,72.77
2018-04-10T05:22:54.347Z,72.49
2018-04-10T05:28:59.649Z,72.48
2018-04-10T05:35:04.339Z,72.72
2018-04-10T05:41:08.772Z,72.06
2018-04-10T05:47:14.315Z,72.19
2018-04-10T05:53:18.680Z,72.71
2018-04-10T05:59:23.175Z,72.65
2018-04-10T06:05:27.543Z,71.63
2018-04-10T06:11:31.971Z,70.71
2018-04-10T06:17:37.123Z,70.49
2018-04-10T06:23:41.917Z,70.68
2018-04-10T06:29:47.516Z,70.06
2018-04-10T06:35:51.920Z,69.02
2018-04-10T06:41:56.285Z,67.93
2018-04-10T06:48:00.961Z,66.23
2018-04-10T06:54:05.486Z,55.36
2018-04-10T07:00:10.069Z,45.12
2018-04-10T07:06:14.540Z,40.40
2018-04-10T07:12:18.903Z,39.71
2018-04-10T07:18:24.024Z,43.34
2018-04-10T07:24:28.477Z,47.39
2018-04-10T07:30:33.704Z,50.39
2018-04-10T07:36:38.062Z,51.37
2018-04-10T07:42:43.047Z,52.05
2018-04-10T07:48:47.622Z,53.17
2018-04-10T07:54:52.081Z,53.00
2018-04-10T08:00:57.297Z,52.29
2018-04-10T08:07:02.776Z,51.11
2018-04-10T08:13:07.971Z,49.77
2018-04-10T08:19:13.011Z,48.86
2018-04-10T08:25:17.470Z,48.79
2018-04-10T08:31:21.824Z,48.11
2018-04-10T08:37:26.226Z,48.13
2018-04-10T08:43:30.589Z,49.19
2018-04-10T08:49:34.966Z,48.85
2018-04-10T08:55:39.438Z,47.31
2018-04-10T09:01:44.064Z,45.80
2018-04-10T09:07:48.494Z,44.18
2018-04-10T09:13:52.860Z,41.98
2018-04-10T09:19:57.563Z,42.13
2018-04-10T09:26:02.090Z,40.87
2018-04-10T09:32:08.110Z,39.26
2018-04-10T09:38:13.124Z,38.77
2018-04-10T09:44:17.499Z,35.34
2018-04-10T09:50:21.879Z,34.96
2018-04-10T09:56:26.553Z,34.15
2018-04-10T10:02:31.113Z,31.42
2018-04-10T10:08:35.512Z,30.55
2018-04-10T10:14:39.945Z,30.58
2018-04-10T10:20:44.717Z,31.23
2018-04-10T10:26:49.098Z,29.92
2018-04-10T10:32:53.641Z,27.48
2018-04-10T10:38:58.011Z,24.88
2018-04-10T10:45:02.377Z,25.71
2018-04-10T10:51:06.741Z,26.37
2018-04-10T10:57:11.761Z,23.72
2018-04-10T11:03:16.192Z,26.45
2018-04-10T11:09:20.570Z,26.40
2018-04-10T11:15:25.055Z,25.76
2018-04-10T11:21:30.201Z,24.85
2018-04-10T11:27:34.641Z,25.08
2018-04-10T11:33:39.047Z,25.06
2018-04-10T11:39:43.415Z,24.68
2018-04-10T11:45:47.875Z,24.15
2018-04-10T11:51:52.288Z,25.12
2018-04-10T11:57:56.702Z,23.93
2018-04-10T12:04:01.130Z,23.58
2018-04-10T12:10:05.580Z,21.97
2018-04-10T12:16:10.297Z,23.59
2018-04-10T12:22:14.852Z,23.98
2018-04-10T12:28:19.340Z,26.63
2018-04-10T12:34:23.790Z,25.34
2018-04-10T12:40:28.171Z,26.29
2018-04-10T12:46:32.546Z,25.71
2018-04-10T12:52:36.922Z,23.47
2018-04-10T12:58:41.332Z,23.57
2018-04-10T13:04:45.718Z,24.84
2018-04-10T13:10:50.172Z,24.49
2018-04-10T13:16:55.036Z,24.48
2018-04-10T13:22:59.454Z,24.05
2018-04-10T13:29:03.909Z,23.55
2018-04-10T13:35:08.444Z,24.57
2018-04-10T13:41:13.634Z,24.51
2018-04-10T13:47:18.113Z,24.75
2018-04-10T13:53:23.252Z,24.46
2018-04-10T13:59:27.761Z,26.47
2018-04-10T14:05:32.143Z,28.38
2018-04-10T14:11:36.731Z,27.88
2018-04-10T14:17:42.608Z,28.79
2018-04-10T14:23:47.212Z,28.46
2018-04-10T14:29:51.585Z,27.04
2018-04-10T14:35:55.966Z,27.65
2018-04-10T14:42:01.092Z,25.98
2018-04-10T14:48:05.502Z,26.84
2018-04-10T14:54:10.099Z,30.11
2018-04-10T15:00:14.729Z,32.08
2018-04-10T15:06:19.093Z,33.90
2018-04-10T15:12:23.477Z,34.93
2018-04-10T15:18:27.833Z,36.04
2018-04-10T15:24:32.257Z,34.49
2018-04-10T15:30:36.716Z,36.01
2018-04-10T15:36:41.291Z,36.34
2018-04-10T15:42:46.425Z,38.68
2018-04-10T15:48:50.815Z,40.12
2018-04-10T15:54:55.218Z,41.17
2018-04-10T16:00:59.586Z,41.92
2018-04-10T16:07:04.713Z,33.90
2018-04-10T16:13:09.176Z,34.09
2018-04-10T16:19:13.964Z,31.72
2018-04-10T16:25:18.413Z,31.07
2018-04-10T16:31:23.543Z,31.30
2018-04-10T16:37:27.942Z,32.36
2018-04-10T16:43:32.300Z,30.67
2018-04-10T16:49:36.685Z,31.49
2018-04-10T16:55:42.367Z,34.61
2018-04-10T17:01:46.778Z,36.09
2018-04-10T17:07:51.169Z,36.71
2018-04-10T17:13:56.446Z,38.82
2018-04-10T17:20:01.712Z,40.28
2018-04-10T17:26:06.084Z,41.44
2018-04-10T17:32:10.544Z,42.93
2018-04-10T17:38:15.184Z,42.40
2018-04-10T17:44:19.561Z,43.17
2018-04-10T17:50:23.939Z,44.36
2018-04-10T17:56:28.341Z,45.27
2018-04-10T18:02:32.722Z,46.61
2018-04-10T18:08:37.077Z,48.07
2018-04-10T18:14:43.027Z,49.06
2018-04-10T18:20:47.480Z,49.16
2018-04-10T18:26:52.107Z,49.27
2018-04-10T18:32:56.480Z,49.53
2018-04-10T18:39:00.826Z,49.46
2018-04-10T18:45:05.292Z,50.43
2018-04-10T18:51:09.719Z,50.51
2018-04-10T18:57:14.198Z,49.81
2018-04-10T19:03:18.548Z,48.83
2018-04-10T19:09:22.960Z,48.39
2018-04-10T19:15:27.310Z,48.22
2018-04-10T19:21:31.745Z,47.79
2018-04-10T19:27:36.098Z,49.66
2018-04-10T19:33:41.368Z,50.92
2018-04-10T19:39:45.750Z,50.97
2018-04-10T19:45:50.248Z,51.91
2018-04-10T19:51:54.605Z,51.64
2018-04-10T19:57:58.975Z,52.35
2018-04-10T20:04:03.384Z,52.08
2018-04-10T20:10:07.767Z,52.91
2018-04-10T20:16:12.922Z,53.18
2018-04-10T20:22:18.057Z,52.71
2018-04-10T20:28:22.418Z,52.19
2018-04-10T20:34:26.775Z,53.16
2018-04-10T20:40:31.147Z,53.46
2018-04-10T20:46:35.539Z,51.89
2018-04-10T20:52:40.370Z,51.15
2018-04-10T20:58:45.559Z,51.28
2018-04-10T21:04:50.069Z,51.55
2018-04-10T21:10:54.453Z,52.17
2018-04-10T21:16:59.570Z,51.80
2018-04-10T21:23:03.932Z,52.12
2018-04-10T21:29:08.308Z,51.48
2018-04-10T21:35:13.482Z,52.46
2018-04-10T21:41:17.883Z,52.82
2018-04-10T21:47:22.252Z,52.16
2018-04-10T21:53:27.414Z,52.81
2018-04-10T21:59:31.822Z,53.00
2018-04-10T22:05:37.017Z,54.10
2018-04-10T22:11:42.228Z,54.23
2018-04-10T22:17:46.623Z,53.62
2018-04-10T22:23:50.982Z,54.36
2018-04-10T22:29:55.330Z,54.47
2018-04-10T22:36:00.415Z,54.39
2018-04-10T22:42:04.782Z,55.03
2018-04-10T22:48:09.137Z,57.06
2018-04-10T22:54:15.187Z,55.90
2018-04-10T23:00:33.139Z,55.19
2018-04-10T23:06:37.195Z,55.71
2018-04-10T23:12:43.263Z,56.38
2018-04-10T23:18:47.699Z,57.16
2018-04-10T23:24:52.082Z,56.93
2018-04-10T23:30:56.431Z,57.06
2018-04-10T23:37:00.808Z,56.17
2018-04-10T23:43:05.186Z,56.06
2018-04-10T23:49:09.861Z,56.25
2018-04-10T23:55:14.231Z,57.12
